Time;durP1;ratioP1;P1;durP2;ratioP2;P2;SDS_P1;SDS_P2;PMS_P1;PMS_P2;Temp;Humidity;BMP_temperature;BMP_pressure;BME280_temperature;BME280_humidity;BME280_pressure;Samples;Min_cycle;Max_cycle;Signal;HPM_P1;HPM_P2
2023/05/13 00:02:15;;;;;;;;;;;;;;;24.78;33.20;101364.00;5077815;28;1137;-31
2023/05/13 00:04:41;;;;;;;;;;;;;;;24.80;33.05;101362.00;5076178;28;1059;-31
2023/05/13 00:07:06;;;;;;;;;;;;;;;24.86;33.02;101357.88;5081260;28;1976;-31
2023/05/13 00:09:32;;;;;;;;;;;;;;;24.84;33.16;101352.59;5096623;28;1041;-33
2023/05/13 00:11:57;;;;;;;;;;;;;;;24.83;32.98;101357.16;5095506;28;1030;-29
2023/05/13 00:14:23;;;;;;;;;;;;;;;24.79;33.04;101358.47;5085112;28;1154;-32
2023/05/13 00:16:49;;;;;;;;;;;;;;;24.74;33.16;101347.31;5080341;28;1610;-33
2023/05/13 00:19:14;;;;;;;;;;;;;;;24.82;33.16;101360.84;5084603;28;1109;-32
2023/05/13 00:21:40;;;;;;;;;;;;;;;24.76;33.22;101360.59;5076213;28;1083;-31
2023/05/13 00:24:05;;;;;;;;;;;;;;;24.77;33.09;101363.16;5087373;28;1078;-33
2023/05/13 00:26:31;;;;;;;;;;;;;;;24.76;33.22;101365.97;5077899;28;1979;-32
2023/05/13 00:28:57;;;;;;;;;;;;;;;24.80;33.16;101367.38;5076194;28;1031;-31
2023/05/13 00:31:22;;;;;;;;;;;;;;;24.73;33.45;101360.91;5071353;28;1154;-31
2023/05/13 00:33:48;;;;;;;;;;;;;;;24.76;33.27;101357.91;5069073;28;1147;-28
2023/05/13 00:36:14;;;;;;;;;;;;;;;24.80;33.24;101362.84;5064393;28;1166;-34
2023/05/13 00:38:39;;;;;;;;;;;;;;;24.81;33.52;101367.22;5066935;28;1328;-29
2023/05/13 00:41:05;;;;;;;;;;;;;;;24.81;33.40;101366.38;5093346;28;995;-30
2023/05/13 00:43:30;;;;;;;;;;;;;;;24.78;33.38;101355.91;5096414;28;1208;-32
2023/05/13 00:45:56;;;;;;;;;;;;;;;24.86;33.30;101363.25;5078085;28;1914;-31
2023/05/13 00:48:23;;;;;;;;;;;;;;;24.77;33.36;101365.84;5060852;28;1218;-31
2023/05/13 00:50:49;;;;;;;;;;;;;;;24.69;33.52;101365.78;5059954;28;1090;-33
2023/05/13 00:53:15;;;;;;;;;;;;;;;24.79;33.57;101371.91;5075769;28;1135;-31
2023/05/13 00:55:44;;;;;;;;;;;;;;;24.79;33.42;101374.59;5080260;28;1103;-31
2023/05/13 00:58:10;;;;;;;;;;;;;;;24.74;33.57;101371.50;5084669;28;1119;-30
2023/05/13 01:00:37;;;;;;;;;;;;;;;24.77;33.58;101373.94;5080807;28;1082;-27
2023/05/13 01:03:09;;;;;;;;;;;;;;;24.76;33.38;101368.66;5065943;28;1127;-31
2023/05/13 01:05:47;;;;;;;;;;;;;;;24.86;33.36;101365.94;5095643;28;1976;-30
2023/05/13 01:08:23;;;;;;;;;;;;;;;24.75;33.45;101362.47;5077937;28;1119;-32
2023/05/13 01:10:48;;;;;;;;;;;;;;;24.75;33.37;101367.00;5070801;28;1265;-29
2023/05/13 01:13:22;;;;;;;;;;;;;;;24.81;33.35;101369.06;5092842;28;1063;-29
2023/05/13 01:15:56;;;;;;;;;;;;;;;24.73;33.76;101377.06;5089889;28;1111;-31
2023/05/13 01:18:28;;;;;;;;;;;;;;;24.76;33.67;101374.06;5085390;28;1137;-29
2023/05/13 01:20:53;;;;;;;;;;;;;;;24.78;33.44;101372.91;5099495;28;1154;-30
2023/05/13 01:23:19;;;;;;;;;;;;;;;24.72;33.76;101370.00;5062704;28;1050;-29
2023/05/13 01:25:45;;;;;;;;;;;;;;;24.80;33.73;101372.78;5060792;28;1914;-31
2023/05/13 01:28:11;;;;;;;;;;;;;;;24.78;33.46;101372.06;5074816;28;1298;-30
2023/05/13 01:30:39;;;;;;;;;;;;;;;24.78;33.69;101375.59;5064348;28;1281;-30
2023/05/13 01:33:06;;;;;;;;;;;;;;;24.88;33.30;101377.38;5067466;28;1333;-30
2023/05/13 01:35:32;;;;;;;;;;;;;;;24.69;33.64;101376.53;5099429;28;1188;-32
2023/05/13 01:37:58;;;;;;;;;;;;;;;24.81;33.56;101377.13;5075211;28;1126;-29
2023/05/13 01:40:23;;;;;;;;;;;;;;;24.70;33.77;101376.38;5064106;28;1194;-32
2023/05/13 01:42:49;;;;;;;;;;;;;;;24.79;33.54;101371.91;5062106;28;1250;-32
2023/05/13 01:45:15;;;;;;;;;;;;;;;24.74;33.69;101368.00;5078980;28;1901;-29
2023/05/13 01:47:40;;;;;;;;;;;;;;;24.70;33.64;101372.84;5065985;28;1174;-31
2023/05/13 01:50:07;;;;;;;;;;;;;;;24.78;33.64;101369.38;5067810;28;1542;-30
2023/05/13 01:52:33;;;;;;;;;;;;;;;24.75;33.80;101370.53;5060948;28;1223;-28
2023/05/13 01:54:59;;;;;;;;;;;;;;;24.78;33.55;101374.75;5060550;28;1198;-31
2023/05/13 01:57:25;;;;;;;;;;;;;;;24.77;33.57;101371.25;5060846;28;1166;-32
2023/05/13 01:59:51;;;;;;;;;;;;;;;24.73;33.60;101374.34;5060579;28;1305;-32
2023/05/13 02:02:17;;;;;;;;;;;;;;;24.68;33.71;101372.97;5059658;28;1110;-29
2023/05/13 02:04:43;;;;;;;;;;;;;;;24.72;33.77;101381.59;5060406;28;1260;-32
2023/05/13 02:07:08;;;;;;;;;;;;;;;24.71;33.83;101382.59;5060255;28;1979;-31
2023/05/13 02:09:34;;;;;;;;;;;;;;;24.71;33.70;101382.59;5072869;28;1863;-27
2023/05/13 02:11:59;;;;;;;;;;;;;;;24.67;33.86;101389.28;5066112;28;1039;-27
2023/05/13 02:14:27;;;;;;;;;;;;;;;24.70;33.85;101394.34;5067647;28;1246;-28
2023/05/13 02:16:53;;;;;;;;;;;;;;;24.69;33.71;101393.50;5078090;28;1360;-30
2023/05/13 02:19:18;;;;;;;;;;;;;;;24.74;33.69;101394.91;5059723;28;2109;-32
2023/05/13 02:21:44;;;;;;;;;;;;;;;24.71;33.64;101406.78;5072289;28;1087;-30
2023/05/13 02:24:10;;;;;;;;;;;;;;;24.59;33.92;101400.78;5078104;28;1042;-29
2023/05/13 02:26:35;;;;;;;;;;;;;;;24.68;33.95;101404.41;5087315;28;1983;-26
2023/05/13 02:29:01;;;;;;;;;;;;;;;24.79;33.66;101404.19;5090061;28;1055;-28
2023/05/13 02:31:27;;;;;;;;;;;;;;;24.75;33.79;101404.66;5066041;28;1577;-29
2023/05/13 02:33:53;;;;;;;;;;;;;;;24.74;33.65;101403.81;5097603;28;1067;-29
2023/05/13 02:36:19;;;;;;;;;;;;;;;24.82;33.49;101397.69;5066251;28;1410;-28
2023/05/13 02:38:45;;;;;;;;;;;;;;;24.74;33.63;101397.59;5067753;28;1126;-27
2023/05/13 02:41:12;;;;;;;;;;;;;;;24.75;33.73;101401.97;5059648;28;1178;-32
2023/05/13 02:43:38;;;;;;;;;;;;;;;24.74;33.74;101403.81;5071800;28;1303;-28
2023/05/13 02:46:05;;;;;;;;;;;;;;;24.70;33.63;101408.66;5060532;28;1969;-26
2023/05/13 02:48:32;;;;;;;;;;;;;;;24.68;33.76;101416.03;5059803;28;1239;-32
2023/05/13 02:50:59;;;;;;;;;;;;;;;24.71;33.93;101420.25;5072976;28;1225;-28
2023/05/13 02:53:25;;;;;;;;;;;;;;;24.70;33.82;101415.88;5071782;28;1406;-29
2023/05/13 02:55:54;;;;;;;;;;;;;;;24.75;33.79;101423.50;5073273;28;1173;-30
2023/05/13 02:58:23;;;;;;;;;;;;;;;24.74;33.75;101419.13;5059792;28;1548;-26
2023/05/13 03:00:49;;;;;;;;;;;;;;;24.67;33.79;101414.31;5072873;28;1374;-27
2023/05/13 03:03:15;;;;;;;;;;;;;;;24.72;33.74;101418.41;5081470;28;861;-28
2023/05/13 03:05:40;;;;;;;;;;;;;;;24.66;33.95;101418.00;5078937;28;1975;-29
2023/05/13 03:08:06;;;;;;;;;;;;;;;24.67;33.90;101422.38;5084227;28;1067;-30
2023/05/13 03:10:31;;;;;;;;;;;;;;;24.84;33.61;101427.97;5083548;28;1198;-31
2023/05/13 03:12:57;;;;;;;;;;;;;;;24.60;34.15;101425.84;5066329;28;1158;-28
2023/05/13 03:15:22;;;;;;;;;;;;;;;23.93;28.80;101422.22;5058662;28;1033;-29
2023/05/13 03:17:48;;;;;;;;;;;;;;;22.53;28.13;101436.47;5058812;28;1266;-29
2023/05/13 03:20:14;;;;;;;;;;;;;;;21.95;28.90;101430.69;5081962;28;1125;-28
2023/05/13 03:22:40;;;;;;;;;;;;;;;23.14;33.03;101436.50;5071948;28;1218;-29
2023/05/13 03:25:07;;;;;;;;;;;;;;;24.50;27.94;101442.03;5078410;28;1972;-28
2023/05/13 03:27:39;;;;;;;;;;;;;;;23.45;26.48;101443.63;5064429;28;1168;-29
2023/05/13 03:30:06;;;;;;;;;;;;;;;22.51;27.49;101439.28;5059025;28;1155;-32
2023/05/13 03:32:37;;;;;;;;;;;;;;;24.82;27.66;101443.44;5071558;28;1341;-30
2023/05/13 03:35:05;;;;;;;;;;;;;;;25.56;26.94;101439.78;5062004;28;1091;-32
2023/05/13 03:37:30;;;;;;;;;;;;;;;25.12;26.13;101444.13;5064535;28;1113;-30
2023/05/13 03:39:56;;;;;;;;;;;;;;;24.49;27.14;101451.91;5088203;28;1098;-27
2023/05/13 03:42:22;;;;;;;;;;;;;;;24.02;27.54;101450.06;5071653;28;1405;-32
2023/05/13 03:44:49;;;;;;;;;;;;;;;24.82;26.71;101456.88;5070844;28;1613;-30
2023/05/13 03:47:15;;;;;;;;;;;;;;;24.09;25.62;101443.97;5094511;28;1989;-26
2023/05/13 03:49:40;;;;;;;;;;;;;;;24.62;26.23;101443.53;5075715;28;1126;-29
2023/05/13 03:52:09;;;;;;;;;;;;;;;24.86;25.71;101439.44;5073472;28;1199;-31
2023/05/13 03:54:35;;;;;;;;;;;;;;;23.79;26.51;101437.81;5068488;28;1276;-31
2023/05/13 03:57:00;;;;;;;;;;;;;;;23.27;26.71;101435.41;5077545;28;1058;-31
2023/05/13 03:59:26;;;;;;;;;;;;;;;23.71;26.50;101440.34;5083803;28;1139;-33
2023/05/13 04:01:52;;;;;;;;;;;;;;;22.97;26.08;101432.69;5084980;28;1066;-32
2023/05/13 04:04:17;;;;;;;;;;;;;;;20.55;29.05;101430.31;5083035;28;1214;-31
2023/05/13 04:06:43;;;;;;;;;;;;;;;21.22;27.75;101436.69;5078354;28;1901;-32
2023/05/13 04:09:08;;;;;;;;;;;;;;;22.06;27.21;101437.78;5089244;28;1292;-26
2023/05/13 04:11:34;;;;;;;;;;;;;;;22.25;26.99;101441.56;5058457;28;1273;-29
2023/05/13 04:14:00;;;;;;;;;;;;;;;22.40;26.92;101439.38;5079479;28;1293;-29
2023/05/13 04:16:26;;;;;;;;;;;;;;;22.48;26.82;101438.69;5093919;28;1216;-26
2023/05/13 04:18:52;;;;;;;;;;;;;;;22.50;26.78;101436.75;5076361;28;1209;-28
2023/05/13 04:21:19;;;;;;;;;;;;;;;22.54;26.72;101442.69;5077226;28;1163;-25
2023/05/13 04:23:45;;;;;;;;;;;;;;;22.51;26.89;101438.44;5078135;28;1233;-28
2023/05/13 04:26:10;;;;;;;;;;;;;;;22.41;27.00;101440.22;5062804;28;1906;-27
2023/05/13 04:28:36;;;;;;;;;;;;;;;22.53;27.14;101438.28;5083812;28;1027;-29
2023/05/13 04:31:02;;;;;;;;;;;;;;;22.40;27.08;101439.38;5059932;28;1270;-32
2023/05/13 04:33:29;;;;;;;;;;;;;;;22.48;27.29;101447.59;5065551;28;1295;-30
2023/05/13 04:35:54;;;;;;;;;;;;;;;22.46;27.77;101440.66;5077459;28;1444;-29
2023/05/13 04:38:21;;;;;;;;;;;;;;;22.46;27.55;101448.69;5078052;28;1408;-26
2023/05/13 04:40:47;;;;;;;;;;;;;;;22.57;27.81;101448.59;5077546;28;1413;-26
2023/05/13 04:43:16;;;;;;;;;;;;;;;22.55;27.89;101447.06;5077638;28;1125;-28
2023/05/13 04:45:49;;;;;;;;;;;;;;;22.62;27.86;101448.25;5073766;28;1914;-31
2023/05/13 04:48:15;;;;;;;;;;;;;;;22.54;27.90;101456.09;5062077;28;1159;-29
2023/05/13 04:50:44;;;;;;;;;;;;;;;22.51;28.31;101462.56;5086450;28;1150;-28
2023/05/13 04:53:10;;;;;;;;;;;;;;;22.47;28.22;101469.19;5084223;28;1058;-29
2023/05/13 04:55:35;;;;;;;;;;;;;;;22.50;28.12;101467.06;5068961;28;1071;-30
2023/05/13 04:58:01;;;;;;;;;;;;;;;22.41;28.37;101464.34;5068108;28;1157;-29
2023/05/13 05:00:27;;;;;;;;;;;;;;;22.48;28.21;101471.72;5061843;28;1167;-30
2023/05/13 05:02:53;;;;;;;;;;;;;;;22.47;27.98;101472.69;5086896;28;1095;-29
2023/05/13 05:05:20;;;;;;;;;;;;;;;22.53;27.93;101473.16;5061672;28;1914;-27
2023/05/13 05:07:46;;;;;;;;;;;;;;;22.47;28.45;101469.19;5078641;28;1130;-29
2023/05/13 05:10:11;;;;;;;;;;;;;;;22.46;28.35;101476.38;5061648;28;1226;-30
2023/05/13 05:12:41;;;;;;;;;;;;;;;22.46;28.10;101467.47;5074916;28;1687;-29
2023/05/13 05:15:14;;;;;;;;;;;;;;;22.34;28.40;101475.59;5079624;28;920;-27
2023/05/13 05:17:43;;;;;;;;;;;;;;;22.43;28.35;101473.09;5061176;28;1218;-28
2023/05/13 05:20:09;;;;;;;;;;;;;;;22.58;28.18;101471.78;5088785;28;1090;-31
2023/05/13 05:22:36;;;;;;;;;;;;;;;22.54;28.31;101475.69;5064648;28;2150;-29
2023/05/13 05:25:02;;;;;;;;;;;;;;;22.47;28.42;101477.22;5070382;28;2086;-29
2023/05/13 05:27:28;;;;;;;;;;;;;;;22.59;28.36;101475.28;5072624;28;1277;-29
2023/05/13 05:29:54;;;;;;;;;;;;;;;22.65;28.27;101473.94;5061376;28;1234;-26
2023/05/13 05:32:21;;;;;;;;;;;;;;;22.69;27.84;101478.06;5095461;28;994;-30
2023/05/13 05:34:47;;;;;;;;;;;;;;;22.70;27.97;101477.94;5071401;28;976;-25
2023/05/13 05:37:13;;;;;;;;;;;;;;;22.83;27.80;101477.69;5074040;28;1639;-29
2023/05/13 05:39:40;;;;;;;;;;;;;;;22.95;27.66;101477.56;5062686;28;1551;-29
2023/05/13 05:42:09;;;;;;;;;;;;;;;22.94;27.48;101475.88;5074521;28;1218;-29
2023/05/13 05:44:35;;;;;;;;;;;;;;;22.98;27.75;101471.94;5060460;28;1150;-27
2023/05/13 05:47:01;;;;;;;;;;;;;;;23.29;27.21;101474.53;5063755;28;1906;-28
2023/05/13 05:49:27;;;;;;;;;;;;;;;23.53;27.32;101478.69;5070910;28;1301;-30
2023/05/13 05:51:52;;;;;;;;;;;;;;;23.60;27.01;101478.97;5064178;28;1219;-31
2023/05/13 05:54:19;;;;;;;;;;;;;;;23.64;27.11;101484.91;5060822;28;1166;-28
2023/05/13 05:56:44;;;;;;;;;;;;;;;23.55;27.24;101492.81;5063799;28;1198;-26
2023/05/13 05:59:10;;;;;;;;;;;;;;;23.65;27.38;101486.59;5088471;28;1200;-30
2023/05/13 06:01:36;;;;;;;;;;;;;;;23.66;28.88;101483.75;5074076;28;1507;-29
2023/05/13 06:04:02;;;;;;;;;;;;;;;23.80;30.30;101479.81;5060025;28;927;-29
2023/05/13 06:06:28;;;;;;;;;;;;;;;23.81;29.23;101478.81;5060905;28;1906;-26
2023/05/13 06:08:54;;;;;;;;;;;;;;;23.86;29.75;101486.44;5078598;28;1042;-26
2023/05/13 06:11:20;;;;;;;;;;;;;;;24.13;29.16;101492.06;5060087;28;1154;-25
2023/05/13 06:13:46;;;;;;;;;;;;;;;24.29;29.70;101486.13;5088211;28;1103;-30
2023/05/13 06:16:12;;;;;;;;;;;;;;;24.31;28.97;101482.28;5092205;28;1214;-29
2023/05/13 06:18:37;;;;;;;;;;;;;;;24.24;29.12;101481.16;5078401;28;1035;-25
2023/05/13 06:21:03;;;;;;;;;;;;;;;24.38;29.57;101489.75;5077997;28;1081;-32
2023/05/13 06:23:28;;;;;;;;;;;;;;;24.22;29.62;101475.09;5059960;28;1217;-29
2023/05/13 06:25:54;;;;;;;;;;;;;;;24.31;29.51;101474.22;5080934;28;1985;-29
2023/05/13 06:28:20;;;;;;;;;;;;;;;24.64;29.09;101476.50;5088447;28;828;-28
2023/05/13 06:30:48;;;;;;;;;;;;;;;24.46;29.35;101481.81;5090623;28;1027;-25
2023/05/13 06:33:13;;;;;;;;;;;;;;;24.60;29.33;101471.56;5087811;28;999;-29
2023/05/13 06:35:39;;;;;;;;;;;;;;;24.55;29.18;101483.63;5063580;28;1062;-29
2023/05/13 06:38:05;;;;;;;;;;;;;;;24.75;29.21;101480.00;5076656;28;1158;-26
2023/05/13 06:40:32;;;;;;;;;;;;;;;24.42;29.68;101464.28;5074208;28;1186;-27
2023/05/13 06:42:57;;;;;;;;;;;;;;;24.45;29.81;101475.59;5070004;28;1243;-29
2023/05/13 06:45:28;;;;;;;;;;;;;;;24.74;29.17;101476.44;5073014;28;1991;-27
2023/05/13 06:47:55;;;;;;;;;;;;;;;24.53;29.60;101482.94;5070174;28;1145;-26
2023/05/13 06:50:20;;;;;;;;;;;;;;;24.45;29.73;101480.13;5061912;28;1154;-27
2023/05/13 06:52:46;;;;;;;;;;;;;;;24.61;29.53;101478.66;5082829;28;1068;-26
2023/05/13 06:55:12;;;;;;;;;;;;;;;24.65;29.39;101485.41;5077514;28;1170;-32
2023/05/13 06:57:38;;;;;;;;;;;;;;;24.66;29.50;101496.03;5077604;28;1186;-29
2023/05/13 07:00:04;;;;;;;;;;;;;;;24.75;29.59;101504.22;5076723;28;1174;-27
2023/05/13 07:02:30;;;;;;;;;;;;;;;24.74;29.77;101499.84;5077707;28;1138;-26
2023/05/13 07:04:55;;;;;;;;;;;;;;;24.60;29.90;101509.22;5089938;28;1043;-27
2023/05/13 07:07:21;;;;;;;;;;;;;;;24.58;29.85;101504.00;5087206;28;1981;-29
2023/05/13 07:09:46;;;;;;;;;;;;;;;24.88;29.38;101502.03;5093764;28;1053;-28
2023/05/13 07:12:13;;;;;;;;;;;;;;;24.92;29.33;101492.66;5077238;28;1113;-27
2023/05/13 07:14:38;;;;;;;;;;;;;;;24.70;29.68;101493.91;5077156;28;1194;-28
2023/05/13 07:17:04;;;;;;;;;;;;;;;24.57;29.98;101495.06;5083385;28;1058;-33
2023/05/13 07:19:30;;;;;;;;;;;;;;;24.77;29.65;101500.41;5090639;28;1042;-27
2023/05/13 07:21:55;;;;;;;;;;;;;;;24.90;29.58;101502.75;5076877;28;1162;-29
2023/05/13 07:24:21;;;;;;;;;;;;;;;24.99;29.57;101494.78;5093834;28;1070;-32
2023/05/13 07:26:46;;;;;;;;;;;;;;;24.79;29.82;101498.38;5097237;28;1901;-27
2023/05/13 07:29:12;;;;;;;;;;;;;;;24.96;29.79;101500.47;5082350;28;912;-29
2023/05/13 07:31:38;;;;;;;;;;;;;;;24.94;29.71;101490.69;5087187;28;1057;-30
2023/05/13 07:34:04;;;;;;;;;;;;;;;25.02;29.65;101486.41;5093297;28;1055;-29
2023/05/13 07:36:29;;;;;;;;;;;;;;;25.05;29.64;101488.78;5096547;28;1034;-29
2023/05/13 07:38:55;;;;;;;;;;;;;;;24.94;29.40;101490.69;5080212;28;1145;-29
2023/05/13 07:41:21;;;;;;;;;;;;;;;25.10;29.14;101491.88;5084633;28;929;-28
2023/05/13 07:43:46;;;;;;;;;;;;;;;25.12;29.47;101489.03;5089500;28;1011;-27
2023/05/13 07:46:12;;;;;;;;;;;;;;;25.08;29.36;101491.19;5086299;28;1976;-28
2023/05/13 07:48:37;;;;;;;;;;;;;;;25.09;29.30;101490.16;5096920;28;1126;-29
2023/05/13 07:51:03;;;;;;;;;;;;;;;25.02;29.51;101494.47;5096906;28;1082;-31
2023/05/13 07:53:29;;;;;;;;;;;;;;;24.96;29.80;101497.78;5081191;28;846;-28
2023/05/13 07:55:54;;;;;;;;;;;;;;;25.09;29.58;101494.72;5069247;28;1238;-29
2023/05/13 07:58:20;;;;;;;;;;;;;;;24.99;29.59;101489.41;5089919;28;1035;-29
2023/05/13 08:00:48;;;;;;;;;;;;;;;25.09;29.67;101486.66;5076656;28;1161;-26
2023/05/13 08:03:14;;;;;;;;;;;;;;;25.18;29.10;101489.28;5092965;28;1059;-25
2023/05/13 08:05:40;;;;;;;;;;;;;;;25.04;29.39;101479.84;5086374;28;1905;-31
2023/05/13 08:08:05;;;;;;;;;;;;;;;25.03;29.23;101466.56;5091803;28;1087;-30
2023/05/13 08:10:31;;;;;;;;;;;;;;;25.01;29.36;101464.00;5086380;28;1081;-29
2023/05/13 08:12:56;;;;;;;;;;;;;;;24.76;29.83;101457.47;5092066;28;1098;-29
2023/05/13 08:15:23;;;;;;;;;;;;;;;24.92;29.59;101462.25;5086753;28;1145;-28
2023/05/13 08:17:48;;;;;;;;;;;;;;;24.80;29.72;101454.34;5082286;28;1138;-29
2023/05/13 08:20:14;;;;;;;;;;;;;;;24.78;29.72;101452.78;5100637;28;1070;-27
2023/05/13 08:22:40;;;;;;;;;;;;;;;24.77;29.29;101449.28;5086868;28;1054;-29
2023/05/13 08:25:05;;;;;;;;;;;;;;;25.00;29.62;101456.09;5100528;28;1058;-28
2023/05/13 08:27:31;;;;;;;;;;;;;;;25.12;29.23;101462.97;5086566;28;1913;-29
2023/05/13 08:29:57;;;;;;;;;;;;;;;25.11;28.71;101460.44;5089894;28;913;-25
2023/05/13 08:32:23;;;;;;;;;;;;;;;25.24;28.95;101454.66;5093595;28;1149;-28
2023/05/13 08:34:49;;;;;;;;;;;;;;;25.24;28.73;101460.88;5078321;28;1154;-30
2023/05/13 08:37:14;;;;;;;;;;;;;;;25.23;28.50;101466.41;5093806;28;1046;-29
2023/05/13 08:39:40;;;;;;;;;;;;;;;25.18;28.82;101464.19;5089995;28;1082;-27
2023/05/13 08:42:05;;;;;;;;;;;;;;;25.29;28.48;101471.22;5096635;28;1154;-27
2023/05/13 08:44:31;;;;;;;;;;;;;;;25.07;29.00;101457.19;5100273;28;1066;-28
2023/05/13 08:47:06;;;;;;;;;;;;;;;25.10;28.79;101447.94;5068898;28;1985;-32
2023/05/13 08:49:32;;;;;;;;;;;;;;;25.21;28.83;101444.22;5089085;28;1054;-30
2023/05/13 08:51:57;;;;;;;;;;;;;;;25.21;28.92;101449.59;5079795;28;1174;-29
2023/05/13 08:54:23;;;;;;;;;;;;;;;25.49;28.36;101449.50;5089108;28;1038;-27
2023/05/13 08:56:48;;;;;;;;;;;;;;;25.26;28.65;101445.44;5096023;28;1130;-24
2023/05/13 08:59:14;;;;;;;;;;;;;;;25.34;28.32;101447.34;5089692;28;1121;-28
2023/05/13 09:01:39;;;;;;;;;;;;;;;25.54;27.66;101449.91;5078526;28;1051;-29
2023/05/13 09:04:06;;;;;;;;;;;;;;;25.29;28.17;101449.66;5081496;28;1020;-26
2023/05/13 09:06:31;;;;;;;;;;;;;;;25.14;28.76;101444.78;5064876;28;1902;-29
2023/05/13 09:08:57;;;;;;;;;;;;;;;25.18;28.50;101453.41;5079925;28;1130;-29
2023/05/13 09:11:22;;;;;;;;;;;;;;;25.37;28.19;101451.59;5079499;28;1190;-27
2023/05/13 09:13:57;;;;;;;;;;;;;;;25.37;28.15;101443.50;5079613;28;1169;-30
2023/05/13 09:16:23;;;;;;;;;;;;;;;25.50;27.36;101443.13;5096891;28;1134;-30
2023/05/13 09:18:49;;;;;;;;;;;;;;;25.27;28.51;101452.53;5099747;28;1073;-28
2023/05/13 09:21:24;;;;;;;;;;;;;;;25.38;27.70;101455.97;5063349;28;1336;-28
2023/05/13 09:23:54;;;;;;;;;;;;;;;25.21;28.54;101458.50;5077832;28;1205;-30
2023/05/13 09:26:27;;;;;;;;;;;;;;;25.09;28.97;101447.09;5078835;28;1905;-29
2023/05/13 09:29:11;;;;;;;;;;;;;;;25.28;28.69;101451.50;5084950;28;1023;-28
2023/05/13 09:31:37;;;;;;;;;;;;;;;25.31;28.29;101450.34;5089251;28;1050;-28
2023/05/13 09:34:02;;;;;;;;;;;;;;;25.20;28.81;101454.13;5095443;28;1148;-29
2023/05/13 09:36:28;;;;;;;;;;;;;;;25.35;28.63;101457.13;5078872;28;1150;-28
2023/05/13 09:38:54;;;;;;;;;;;;;;;25.28;28.69;101446.13;5092304;28;1445;-27
2023/05/13 09:41:20;;;;;;;;;;;;;;;25.35;28.68;101457.13;5088331;28;1139;-29
2023/05/13 09:43:46;;;;;;;;;;;;;;;25.34;28.76;101458.09;5081678;28;1097;-26
2023/05/13 09:46:11;;;;;;;;;;;;;;;25.46;28.35;101458.72;5089151;28;1902;-28
2023/05/13 09:48:37;;;;;;;;;;;;;;;25.30;28.48;101457.59;5084996;28;1101;-29
2023/05/13 09:51:03;;;;;;;;;;;;;;;25.24;28.86;101460.88;5070719;28;1286;-29
2023/05/13 09:53:28;;;;;;;;;;;;;;;25.50;28.80;101453.88;5080652;28;1110;-32
2023/05/13 09:55:54;;;;;;;;;;;;;;;25.06;29.44;101461.72;5071046;28;1086;-26
2023/05/13 09:58:20;;;;;;;;;;;;;;;25.35;28.81;101462.50;5081571;28;1143;-29
2023/05/13 10:00:46;;;;;;;;;;;;;;;25.14;28.94;101466.34;5071089;28;1133;-28
2023/05/13 10:03:12;;;;;;;;;;;;;;;25.15;29.13;101467.19;5073762;28;1198;-30
2023/05/13 10:05:38;;;;;;;;;;;;;;;25.23;29.22;101456.50;5079512;28;1913;-26
2023/05/13 10:08:04;;;;;;;;;;;;;;;25.33;28.93;101452.88;5078264;28;1443;-31
2023/05/13 10:10:30;;;;;;;;;;;;;;;25.26;29.20;101447.25;5088539;28;1109;-29
2023/05/13 10:12:57;;;;;;;;;;;;;;;25.24;28.95;101435.81;5085367;28;1065;-31
2023/05/13 10:15:23;;;;;;;;;;;;;;;25.10;29.14;101429.97;5098520;28;1101;-26
2023/05/13 10:17:48;;;;;;;;;;;;;;;25.33;28.94;101450.19;5071441;28;1026;-31
2023/05/13 10:20:14;;;;;;;;;;;;;;;25.23;29.16;101439.50;5077951;28;1083;-30
2023/05/13 10:22:40;;;;;;;;;;;;;;;25.21;29.10;101442.34;5095274;28;1023;-29
2023/05/13 10:25:06;;;;;;;;;;;;;;;25.11;29.23;101442.41;5080505;28;1189;-31
2023/05/13 10:27:32;;;;;;;;;;;;;;;25.26;29.34;101433.78;5080470;28;1967;-28
2023/05/13 10:29:58;;;;;;;;;;;;;;;25.28;28.96;101440.75;5087280;28;976;-29
2023/05/13 10:32:25;;;;;;;;;;;;;;;25.16;29.36;101425.78;5095392;28;1105;-29
2023/05/13 10:35:02;;;;;;;;;;;;;;;25.17;29.20;101431.03;5097930;28;1224;-26
2023/05/13 10:37:42;;;;;;;;;;;;;;;25.14;29.29;101433.19;5074659;28;1055;-25
2023/05/13 10:40:14;;;;;;;;;;;;;;;25.21;29.23;101419.97;5079405;28;1019;-25
2023/05/13 10:42:41;;;;;;;;;;;;;;;25.07;29.50;101425.72;5075129;28;912;-31
2023/05/13 10:45:08;;;;;;;;;;;;;;;25.12;29.54;101422.59;5079403;28;1174;-27
2023/05/13 10:47:33;;;;;;;;;;;;;;;25.24;29.34;101419.66;5097540;28;1984;-27
2023/05/13 10:50:03;;;;;;;;;;;;;;;25.43;28.79;101407.88;5082581;28;1074;-29
2023/05/13 10:52:47;;;;;;;;;;;;;;;25.37;28.72;101405.81;5068694;28;1127;-28
2023/05/13 10:55:16;;;;;;;;;;;;;;;25.35;28.48;101405.97;5081291;28;1431;-26
2023/05/13 10:57:43;;;;;;;;;;;;;;;25.31;29.10;101409.94;5086146;28;1145;-32
2023/05/13 11:00:15;;;;;;;;;;;;;;;25.24;29.24;101407.03;5075494;28;1523;-27
2023/05/13 11:02:41;;;;;;;;;;;;;;;25.20;29.39;101416.44;5089487;28;1086;-29
2023/05/13 11:05:06;;;;;;;;;;;;;;;25.25;28.54;101397.09;5081507;28;1073;-28
2023/05/13 11:07:32;;;;;;;;;;;;;;;25.41;28.25;101412.56;5085965;28;1990;-25
2023/05/13 11:09:58;;;;;;;;;;;;;;;25.49;27.94;101418.00;5062125;28;1514;-28
2023/05/13 11:12:24;;;;;;;;;;;;;;;25.59;28.07;101412.53;5086012;28;1085;-25
2023/05/13 11:14:49;;;;;;;;;;;;;;;25.43;28.58;101408.72;5077254;28;1058;-29
2023/05/13 11:17:17;;;;;;;;;;;;;;;25.45;28.76;101413.94;5078827;28;1434;-27
2023/05/13 11:19:46;;;;;;;;;;;;;;;25.41;28.20;101426.03;5060249;28;1154;-29
2023/05/13 11:22:13;;;;;;;;;;;;;;;25.48;28.05;101420.88;5077309;28;1122;-28
2023/05/13 11:24:38;;;;;;;;;;;;;;;25.41;28.36;101416.09;5077061;28;1237;-25
2023/05/13 11:27:17;;;;;;;;;;;;;;;25.56;27.79;101415.53;5089742;28;1910;-30
2023/05/13 11:29:49;;;;;;;;;;;;;;;25.36;28.09;101410.34;5082697;28;1019;-27
2023/05/13 11:32:15;;;;;;;;;;;;;;;25.09;28.84;101414.78;5081612;28;1120;-27
2023/05/13 11:34:49;;;;;;;;;;;;;;;25.37;28.27;101403.97;5078714;28;1067;-27
2023/05/13 11:37:14;;;;;;;;;;;;;;;25.35;28.65;101402.41;5065477;28;1139;-29
2023/05/13 11:39:40;;;;;;;;;;;;;;;25.38;28.07;101404.78;5069407;28;1023;-30
2023/05/13 11:42:06;;;;;;;;;;;;;;;25.24;28.77;101407.03;5075650;28;1467;-29
2023/05/13 11:44:32;;;;;;;;;;;;;;;25.24;28.95;101403.50;5076866;28;1197;-25
2023/05/13 11:46:58;;;;;;;;;;;;;;;25.51;27.87;101402.56;5076132;28;1918;-26
2023/05/13 11:49:33;;;;;;;;;;;;;;;25.70;27.66;101399.84;5086209;28;1122;-28
2023/05/13 11:52:02;;;;;;;;;;;;;;;25.71;27.08;101405.09;5078851;28;1082;-28
2023/05/13 11:54:28;;;;;;;;;;;;;;;25.55;27.91;101411.16;5086842;28;1093;-26
2023/05/13 11:56:53;;;;;;;;;;;;;;;25.37;28.72;101421.97;5083154;28;1194;-30
2023/05/13 11:59:19;;;;;;;;;;;;;;;25.62;28.17;101425.72;5085759;28;1083;-28
2023/05/13 12:01:44;;;;;;;;;;;;;;;25.48;27.86;101424.41;5076241;28;1241;-32
2023/05/13 12:04:10;;;;;;;;;;;;;;;25.71;27.92;101425.81;5076367;28;1142;-27
2023/05/13 12:06:43;;;;;;;;;;;;;;;25.55;27.91;101432.72;5082815;28;1988;-27
2023/05/13 12:09:09;;;;;;;;;;;;;;;25.02;28.39;101437.94;5088339;28;1028;-30
2023/05/13 12:11:36;;;;;;;;;;;;;;;25.26;28.00;101439.19;5059925;28;1134;-29
2023/05/13 12:14:01;;;;;;;;;;;;;;;25.42;27.96;101431.25;5088402;28;1090;-31
2023/05/13 12:16:27;;;;;;;;;;;;;;;25.53;28.33;101438.28;5077350;28;1094;-31
2023/05/13 12:18:55;;;;;;;;;;;;;;;25.40;28.23;101444.06;5076296;28;832;-32
2023/05/13 12:21:21;;;;;;;;;;;;;;;25.44;27.70;101442.72;5076354;28;1054;-26
2023/05/13 12:23:46;;;;;;;;;;;;;;;25.36;28.30;101431.88;5088472;28;1130;-29
2023/05/13 12:26:12;;;;;;;;;;;;;;;25.49;27.50;101433.34;5076823;28;1913;-26
2023/05/13 12:28:37;;;;;;;;;;;;;;;25.28;28.59;101429.97;5075118;28;1099;-28
2023/05/13 12:31:04;;;;;;;;;;;;;;;25.42;28.28;101428.56;5083602;28;1174;-26
2023/05/13 12:33:30;;;;;;;;;;;;;;;25.44;28.45;101431.94;5088619;28;1046;-26
2023/05/13 12:36:14;;;;;;;;;;;;;;;25.15;28.87;101429.50;5096550;28;1196;-30
2023/05/13 12:38:39;;;;;;;;;;;;;;;25.40;28.11;101418.97;5094572;28;1089;-24
2023/05/13 12:41:13;;;;;;;;;;;;;;;25.50;27.46;101425.13;5076264;28;1197;-25
2023/05/13 12:43:39;;;;;;;;;;;;;;;25.33;28.17;101421.41;5077310;28;970;-28
2023/05/13 12:46:05;;;;;;;;;;;;;;;25.53;27.46;101434.72;5076018;28;1989;-26